sensor_id;sensor_type;location;lat;lon;timestamp;temperature;humidity
56256;DHT22;57229;51.432;-2.598;2024-03-17T00:01:02;12.00;99.90
56256;DHT22;57229;51.432;-2.598;2024-03-17T00:03:28;12.60;99.90
56256;DHT22;57229;51.432;-2.598;2024-03-17T00:06:01;11.90;99.90
56256;DHT22;57229;51.432;-2.598;2024-03-17T00:08:27;11.90;99.90
56256;DHT22;57229;51.432;-2.598;2024-03-17T00:10:53;11.90;99.90
56256;DHT22;57229;51.432;-2.598;2024-03-17T00:13:20;11.90;99.90
56256;DHT22;57229;51.432;-2.598;2024-03-17T00:15:45;11.90;99.90
56256;DHT22;57229;51.432;-2.598;2024-03-17T00:18:11;11.90;99.90
56256;DHT22;57229;51.432;-2.598;2024-03-17T00:20:37;12.50;99.90
56256;DHT22;57229;51.432;-2.598;2024-03-17T00:23:07;11.90;99.90
56256;DHT22;57229;51.432;-2.598;2024-03-17T00:25:34;11.70;99.90
56256;DHT22;57229;51.432;-2.598;2024-03-17T00:28:01;11.70;99.90
56256;DHT22;57229;51.432;-2.598;2024-03-17T00:30:27;12.00;99.90
56256;DHT22;57229;51.432;-2.598;2024-03-17T00:32:53;11.70;99.90
56256;DHT22;57229;51.432;-2.598;2024-03-17T00:35:18;11.70;99.90
56256;DHT22;57229;51.432;-2.598;2024-03-17T00:37:50;11.70;99.90
56256;DHT22;57229;51.432;-2.598;2024-03-17T00:40:17;11.60;99.90
56256;DHT22;57229;51.432;-2.598;2024-03-17T00:42:43;11.70;99.90
56256;DHT22;57229;51.432;-2.598;2024-03-17T00:45:10;11.60;99.90
56256;DHT22;57229;51.432;-2.598;2024-03-17T00:47:51;12.40;99.90
56256;DHT22;57229;51.432;-2.598;2024-03-17T00:50:22;11.70;99.90
56256;DHT22;57229;51.432;-2.598;2024-03-17T00:52:48;11.90;99.90
56256;DHT22;57229;51.432;-2.598;2024-03-17T00:55:14;13.20;99.90
56256;DHT22;57229;51.432;-2.598;2024-03-17T00:57:48;11.70;99.90
56256;DHT22;57229;51.432;-2.598;2024-03-17T01:00:24;11.70;99.90
56256;DHT22;57229;51.432;-2.598;2024-03-17T01:02:53;11.20;99.90
56256;DHT22;57229;51.432;-2.598;2024-03-17T01:05:18;11.70;99.90
56256;DHT22;57229;51.432;-2.598;2024-03-17T01:07:45;11.60;99.90
56256;DHT22;57229;51.432;-2.598;2024-03-17T01:10:12;11.60;99.90
56256;DHT22;57229;51.432;-2.598;2024-03-17T01:12:38;11.60;99.90
56256;DHT22;57229;51.432;-2.598;2024-03-17T01:15:08;11.60;99.90
56256;DHT22;57229;51.432;-2.598;2024-03-17T01:17:34;11.60;99.90
56256;DHT22;57229;51.432;-2.598;2024-03-17T01:19:59;11.60;99.90
56256;DHT22;57229;51.432;-2.598;2024-03-17T01:22:25;11.50;99.90
56256;DHT22;57229;51.432;-2.598;2024-03-17T01:24:51;11.50;99.90
56256;DHT22;57229;51.432;-2.598;2024-03-17T01:27:16;11.40;99.90
56256;DHT22;57229;51.432;-2.598;2024-03-17T01:29:42;11.60;99.90
56256;DHT22;57229;51.432;-2.598;2024-03-17T01:32:09;11.40;99.90
56256;DHT22;57229;51.432;-2.598;2024-03-17T01:34:37;11.40;99.90
56256;DHT22;57229;51.432;-2.598;2024-03-17T01:37:02;11.40;99.90
56256;DHT22;57229;51.432;-2.598;2024-03-17T01:39:29;11.40;99.90
56256;DHT22;57229;51.432;-2.598;2024-03-17T01:41:55;11.40;99.90
56256;DHT22;57229;51.432;-2.598;2024-03-17T01:44:25;11.30;99.90
56256;DHT22;57229;51.432;-2.598;2024-03-17T01:46:51;11.30;99.90
56256;DHT22;57229;51.432;-2.598;2024-03-17T01:49:17;11.30;99.90
56256;DHT22;57229;51.432;-2.598;2024-03-17T01:51:45;11.30;99.90
56256;DHT22;57229;51.432;-2.598;2024-03-17T01:54:12;11.30;99.90
56256;DHT22;57229;51.432;-2.598;2024-03-17T01:56:39;11.30;99.90
56256;DHT22;57229;51.432;-2.598;2024-03-17T01:59:07;11.20;99.90
56256;DHT22;57229;51.432;-2.598;2024-03-17T02:01:32;11.20;99.90
56256;DHT22;57229;51.432;-2.598;2024-03-17T02:03:59;11.20;99.90
56256;DHT22;57229;51.432;-2.598;2024-03-17T02:06:24;11.20;99.90
56256;DHT22;57229;51.432;-2.598;2024-03-17T02:08:52;11.20;99.90
56256;DHT22;57229;51.432;-2.598;2024-03-17T02:11:31;11.60;99.90
56256;DHT22;57229;51.432;-2.598;2024-03-17T02:14:20;11.20;99.90
56256;DHT22;57229;51.432;-2.598;2024-03-17T02:16:46;11.80;99.90
56256;DHT22;57229;51.432;-2.598;2024-03-17T02:19:15;12.40;99.90
56256;DHT22;57229;51.432;-2.598;2024-03-17T02:21:41;11.20;99.90
56256;DHT22;57229;51.432;-2.598;2024-03-17T02:24:19;11.20;99.90
56256;DHT22;57229;51.432;-2.598;2024-03-17T02:26:45;12.00;99.90
56256;DHT22;57229;51.432;-2.598;2024-03-17T02:29:11;11.20;99.90
56256;DHT22;57229;51.432;-2.598;2024-03-17T02:31:36;11.10;99.90
56256;DHT22;57229;51.432;-2.598;2024-03-17T02:34:02;11.10;99.90
56256;DHT22;57229;51.432;-2.598;2024-03-17T02:36:28;11.10;99.90
56256;DHT22;57229;51.432;-2.598;2024-03-17T02:38:54;11.80;99.90
56256;DHT22;57229;51.432;-2.598;2024-03-17T02:41:42;11.10;99.90
56256;DHT22;57229;51.432;-2.598;2024-03-17T02:44:08;11.10;99.90
56256;DHT22;57229;51.432;-2.598;2024-03-17T02:46:34;11.40;99.90
56256;DHT22;57229;51.432;-2.598;2024-03-17T02:49:00;11.00;99.90
56256;DHT22;57229;51.432;-2.598;2024-03-17T02:51:26;11.10;99.90
56256;DHT22;57229;51.432;-2.598;2024-03-17T02:53:51;11.00;99.90
56256;DHT22;57229;51.432;-2.598;2024-03-17T02:56:17;11.10;99.90
56256;DHT22;57229;51.432;-2.598;2024-03-17T02:58:45;11.10;99.90
56256;DHT22;57229;51.432;-2.598;2024-03-17T03:01:14;11.30;99.90
56256;DHT22;57229;51.432;-2.598;2024-03-17T03:03:41;11.00;99.90
56256;DHT22;57229;51.432;-2.598;2024-03-17T03:06:07;11.10;99.90
56256;DHT22;57229;51.432;-2.598;2024-03-17T03:08:37;11.40;99.90
56256;DHT22;57229;51.432;-2.598;2024-03-17T03:11:04;11.20;99.90
56256;DHT22;57229;51.432;-2.598;2024-03-17T03:13:34;11.10;99.90
56256;DHT22;57229;51.432;-2.598;2024-03-17T03:16:00;11.00;99.90
56256;DHT22;57229;51.432;-2.598;2024-03-17T03:18:26;11.10;99.90
56256;DHT22;57229;51.432;-2.598;2024-03-17T03:20:51;11.10;99.90
56256;DHT22;57229;51.432;-2.598;2024-03-17T03:23:18;11.10;99.90
56256;DHT22;57229;51.432;-2.598;2024-03-17T03:25:44;11.40;99.90
56256;DHT22;57229;51.432;-2.598;2024-03-17T03:28:10;11.10;99.90
56256;DHT22;57229;51.432;-2.598;2024-03-17T03:30:36;11.10;99.90
56256;DHT22;57229;51.432;-2.598;2024-03-17T03:33:02;11.10;99.90
56256;DHT22;57229;51.432;-2.598;2024-03-17T03:35:30;11.10;99.90
56256;DHT22;57229;51.432;-2.598;2024-03-17T03:37:55;11.10;99.90
56256;DHT22;57229;51.432;-2.598;2024-03-17T03:40:22;11.10;99.90
56256;DHT22;57229;51.432;-2.598;2024-03-17T03:42:47;11.10;99.90
56256;DHT22;57229;51.432;-2.598;2024-03-17T03:45:13;11.10;99.90
56256;DHT22;57229;51.432;-2.598;2024-03-17T03:47:42;11.20;99.90
56256;DHT22;57229;51.432;-2.598;2024-03-17T03:50:09;11.10;99.90
56256;DHT22;57229;51.432;-2.598;2024-03-17T03:52:38;11.10;99.90
56256;DHT22;57229;51.432;-2.598;2024-03-17T03:55:06;11.10;99.90
56256;DHT22;57229;51.432;-2.598;2024-03-17T03:57:33;11.10;99.90
56256;DHT22;57229;51.432;-2.598;2024-03-17T04:00:02;11.20;99.90
56256;DHT22;57229;51.432;-2.598;2024-03-17T04:02:41;11.10;99.90
56256;DHT22;57229;51.432;-2.598;2024-03-17T04:05:08;11.10;99.90
56256;DHT22;57229;51.432;-2.598;2024-03-17T04:07:33;11.20;99.90
56256;DHT22;57229;51.432;-2.598;2024-03-17T04:10:00;11.20;99.90
56256;DHT22;57229;51.432;-2.598;2024-03-17T04:12:52;11.20;99.90
56256;DHT22;57229;51.432;-2.598;2024-03-17T04:15:21;11.90;99.90
56256;DHT22;57229;51.432;-2.598;2024-03-17T04:17:47;11.10;99.90
56256;DHT22;57229;51.432;-2.598;2024-03-17T04:20:13;11.10;99.90
56256;DHT22;57229;51.432;-2.598;2024-03-17T04:22:39;11.20;99.90
56256;DHT22;57229;51.432;-2.598;2024-03-17T04:25:05;11.20;99.90
56256;DHT22;57229;51.432;-2.598;2024-03-17T04:27:31;11.10;99.90
56256;DHT22;57229;51.432;-2.598;2024-03-17T04:29:58;11.20;99.90
56256;DHT22;57229;51.432;-2.598;2024-03-17T04:32:24;11.20;99.90
56256;DHT22;57229;51.432;-2.598;2024-03-17T04:34:52;11.20;99.90
56256;DHT22;57229;51.432;-2.598;2024-03-17T04:37:18;11.30;99.90
56256;DHT22;57229;51.432;-2.598;2024-03-17T04:39:44;11.20;99.90
56256;DHT22;57229;51.432;-2.598;2024-03-17T04:42:12;11.20;99.90
56256;DHT22;57229;51.432;-2.598;2024-03-17T04:44:40;11.20;99.90
56256;DHT22;57229;51.432;-2.598;2024-03-17T04:47:05;11.20;99.90
56256;DHT22;57229;51.432;-2.598;2024-03-17T04:49:38;11.20;99.90
56256;DHT22;57229;51.432;-2.598;2024-03-17T04:52:05;11.20;99.90
56256;DHT22;57229;51.432;-2.598;2024-03-17T04:54:34;11.20;99.90
56256;DHT22;57229;51.432;-2.598;2024-03-17T04:57:00;11.20;99.90
56256;DHT22;57229;51.432;-2.598;2024-03-17T04:59:25;11.20;99.90
56256;DHT22;57229;51.432;-2.598;2024-03-17T05:01:51;11.20;99.90
56256;DHT22;57229;51.432;-2.598;2024-03-17T05:04:17;11.10;99.90
56256;DHT22;57229;51.432;-2.598;2024-03-17T05:06:43;11.20;99.90
56256;DHT22;57229;51.432;-2.598;2024-03-17T05:09:15;11.60;99.90
56256;DHT22;57229;51.432;-2.598;2024-03-17T05:11:41;11.10;99.90
56256;DHT22;57229;51.432;-2.598;2024-03-17T05:14:19;11.10;99.90
56256;DHT22;57229;51.432;-2.598;2024-03-17T05:16:49;11.20;99.90
56256;DHT22;57229;51.432;-2.598;2024-03-17T05:19:15;10.70;99.90
56256;DHT22;57229;51.432;-2.598;2024-03-17T05:21:43;10.60;99.90
56256;DHT22;57229;51.432;-2.598;2024-03-17T05:24:10;11.10;99.90
56256;DHT22;57229;51.432;-2.598;2024-03-17T05:26:37;11.10;99.90
56256;DHT22;57229;51.432;-2.598;2024-03-17T05:29:07;11.10;99.90
56256;DHT22;57229;51.432;-2.598;2024-03-17T05:31:33;11.20;99.90
56256;DHT22;57229;51.432;-2.598;2024-03-17T05:33:59;11.10;99.90
56256;DHT22;57229;51.432;-2.598;2024-03-17T05:36:25;11.10;99.90
56256;DHT22;57229;51.432;-2.598;2024-03-17T05:38:51;12.50;99.90
56256;DHT22;57229;51.432;-2.598;2024-03-17T05:41:23;11.30;99.90
56256;DHT22;57229;51.432;-2.598;2024-03-17T05:43:51;11.20;99.90
56256;DHT22;57229;51.432;-2.598;2024-03-17T05:46:17;11.10;99.90
56256;DHT22;57229;51.432;-2.598;2024-03-17T05:48:43;12.20;99.90
56256;DHT22;57229;51.432;-2.598;2024-03-17T05:51:12;11.10;99.90
56256;DHT22;57229;51.432;-2.598;2024-03-17T05:53:39;12.10;99.90
56256;DHT22;57229;51.432;-2.598;2024-03-17T05:56:10;12.10;99.90
56256;DHT22;57229;51.432;-2.598;2024-03-17T05:58:41;11.00;99.90
56256;DHT22;57229;51.432;-2.598;2024-03-17T06:01:07;11.10;99.90
56256;DHT22;57229;51.432;-2.598;2024-03-17T06:03:36;11.90;99.90
56256;DHT22;57229;51.432;-2.598;2024-03-17T06:06:03;11.70;99.90
56256;DHT22;57229;51.432;-2.598;2024-03-17T06:08:29;11.00;99.90
56256;DHT22;57229;51.432;-2.598;2024-03-17T06:10:54;11.00;99.90
56256;DHT22;57229;51.432;-2.598;2024-03-17T06:13:22;11.00;99.90
56256;DHT22;57229;51.432;-2.598;2024-03-17T06:15:50;11.60;99.90
56256;DHT22;57229;51.432;-2.598;2024-03-17T06:18:16;12.30;99.90
56256;DHT22;57229;51.432;-2.598;2024-03-17T06:20:47;11.10;99.90
56256;DHT22;57229;51.432;-2.598;2024-03-17T06:23:14;11.50;99.90
56256;DHT22;57229;51.432;-2.598;2024-03-17T06:25:45;11.00;99.90
56256;DHT22;57229;51.432;-2.598;2024-03-17T06:28:12;11.00;99.90
56256;DHT22;57229;51.432;-2.598;2024-03-17T06:30:44;11.00;99.90
56256;DHT22;57229;51.432;-2.598;2024-03-17T06:33:13;11.00;99.90
56256;DHT22;57229;51.432;-2.598;2024-03-17T06:35:39;12.50;99.90
56256;DHT22;57229;51.432;-2.598;2024-03-17T06:38:05;12.00;99.90
56256;DHT22;57229;51.432;-2.598;2024-03-17T06:40:38;11.60;99.90
56256;DHT22;57229;51.432;-2.598;2024-03-17T06:43:04;11.10;99.90
56256;DHT22;57229;51.432;-2.598;2024-03-17T06:45:30;12.60;99.90
56256;DHT22;57229;51.432;-2.598;2024-03-17T06:47:55;11.40;99.90
56256;DHT22;57229;51.432;-2.598;2024-03-17T06:50:22;11.10;99.90
56256;DHT22;57229;51.432;-2.598;2024-03-17T06:52:47;11.00;99.90
56256;DHT22;57229;51.432;-2.598;2024-03-17T06:55:13;11.50;99.90
56256;DHT22;57229;51.432;-2.598;2024-03-17T06:57:41;11.30;99.90
56256;DHT22;57229;51.432;-2.598;2024-03-17T07:00:09;11.00;99.90
56256;DHT22;57229;51.432;-2.598;2024-03-17T07:02:42;11.00;99.90
56256;DHT22;57229;51.432;-2.598;2024-03-17T07:05:12;11.00;99.90
56256;DHT22;57229;51.432;-2.598;2024-03-17T07:07:40;11.80;99.90
56256;DHT22;57229;51.432;-2.598;2024-03-17T07:10:06;11.10;99.90
56256;DHT22;57229;51.432;-2.598;2024-03-17T07:12:31;11.20;99.90
56256;DHT22;57229;51.432;-2.598;2024-03-17T07:15:11;11.10;99.90
56256;DHT22;57229;51.432;-2.598;2024-03-17T07:17:37;11.20;99.90
56256;DHT22;57229;51.432;-2.598;2024-03-17T07:20:03;11.80;99.90
56256;DHT22;57229;51.432;-2.598;2024-03-17T07:22:30;11.20;99.90
56256;DHT22;57229;51.432;-2.598;2024-03-17T07:24:58;11.30;99.90
56256;DHT22;57229;51.432;-2.598;2024-03-17T07:27:29;11.30;99.90
56256;DHT22;57229;51.432;-2.598;2024-03-17T07:29:55;12.90;99.90
56256;DHT22;57229;51.432;-2.598;2024-03-17T07:32:21;12.20;99.90
56256;DHT22;57229;51.432;-2.598;2024-03-17T07:34:48;11.50;99.90
56256;DHT22;57229;51.432;-2.598;2024-03-17T07:37:15;11.50;99.90
56256;DHT22;57229;51.432;-2.598;2024-03-17T07:39:41;11.60;99.90
56256;DHT22;57229;51.432;-2.598;2024-03-17T07:42:06;11.60;99.90
56256;DHT22;57229;51.432;-2.598;2024-03-17T07:44:32;11.80;99.90
56256;DHT22;57229;51.432;-2.598;2024-03-17T07:47:01;12.40;99.90
56256;DHT22;57229;51.432;-2.598;2024-03-17T07:49:29;11.90;99.90
56256;DHT22;57229;51.432;-2.598;2024-03-17T07:51:55;11.90;99.90
56256;DHT22;57229;51.432;-2.598;2024-03-17T07:54:26;12.00;99.90
56256;DHT22;57229;51.432;-2.598;2024-03-17T07:56:52;11.80;99.90
56256;DHT22;57229;51.432;-2.598;2024-03-17T07:59:17;11.80;99.90
56256;DHT22;57229;51.432;-2.598;2024-03-17T08:01:44;11.90;99.90
56256;DHT22;57229;51.432;-2.598;2024-03-17T08:04:09;11.90;99.90
56256;DHT22;57229;51.432;-2.598;2024-03-17T08:06:40;11.80;99.90
56256;DHT22;57229;51.432;-2.598;2024-03-17T08:09:07;11.80;99.90
56256;DHT22;57229;51.432;-2.598;2024-03-17T08:11:33;11.90;99.90
56256;DHT22;57229;51.432;-2.598;2024-03-17T08:13:59;11.90;99.90
56256;DHT22;57229;51.432;-2.598;2024-03-17T08:16:26;12.40;99.90
56256;DHT22;57229;51.432;-2.598;2024-03-17T08:18:53;12.00;99.90
56256;DHT22;57229;51.432;-2.598;2024-03-17T08:21:19;12.00;99.90
56256;DHT22;57229;51.432;-2.598;2024-03-17T08:23:44;12.00;99.90
56256;DHT22;57229;51.432;-2.598;2024-03-17T08:26:12;12.00;99.90
56256;DHT22;57229;51.432;-2.598;2024-03-17T08:28:38;12.00;99.90
56256;DHT22;57229;51.432;-2.598;2024-03-17T08:31:05;12.00;99.90
56256;DHT22;57229;51.432;-2.598;2024-03-17T08:33:31;12.60;99.90
56256;DHT22;57229;51.432;-2.598;2024-03-17T08:36:08;12.10;99.90
56256;DHT22;57229;51.432;-2.598;2024-03-17T08:38:35;12.00;99.90
56256;DHT22;57229;51.432;-2.598;2024-03-17T08:41:05;12.10;99.90
56256;DHT22;57229;51.432;-2.598;2024-03-17T08:43:31;12.20;99.90
56256;DHT22;57229;51.432;-2.598;2024-03-17T08:46:01;12.40;99.90
56256;DHT22;57229;51.432;-2.598;2024-03-17T08:48:29;12.50;99.90
56256;DHT22;57229;51.432;-2.598;2024-03-17T08:50:56;13.80;99.90
56256;DHT22;57229;51.432;-2.598;2024-03-17T08:53:24;12.80;99.90
56256;DHT22;57229;51.432;-2.598;2024-03-17T08:55:54;12.90;99.90
56256;DHT22;57229;51.432;-2.598;2024-03-17T08:58:29;13.10;99.90
56256;DHT22;57229;51.432;-2.598;2024-03-17T09:00:54;13.20;99.90
56256;DHT22;57229;51.432;-2.598;2024-03-17T09:03:21;13.30;99.90
56256;DHT22;57229;51.432;-2.598;2024-03-17T09:05:48;13.40;99.90
56256;DHT22;57229;51.432;-2.598;2024-03-17T09:08:18;13.50;99.90
56256;DHT22;57229;51.432;-2.598;2024-03-17T09:10:48;13.90;99.90
56256;DHT22;57229;51.432;-2.598;2024-03-17T09:13:21;13.10;99.90
56256;DHT22;57229;51.432;-2.598;2024-03-17T09:16:01;13.10;99.90
56256;DHT22;57229;51.432;-2.598;2024-03-17T09:18:32;13.20;99.90
56256;DHT22;57229;51.432;-2.598;2024-03-17T09:21:02;13.20;99.90
56256;DHT22;57229;51.432;-2.598;2024-03-17T09:23:28;13.20;99.90
56256;DHT22;57229;51.432;-2.598;2024-03-17T09:25:59;14.00;99.90
56256;DHT22;57229;51.432;-2.598;2024-03-17T09:28:26;13.70;99.90
56256;DHT22;57229;51.432;-2.598;2024-03-17T09:30:52;14.90;99.90
56256;DHT22;57229;51.432;-2.598;2024-03-17T09:33:24;16.50;99.90
56256;DHT22;57229;51.432;-2.598;2024-03-17T09:36:09;17.80;99.90
56256;DHT22;57229;51.432;-2.598;2024-03-17T09:38:38;18.90;99.90
56256;DHT22;57229;51.432;-2.598;2024-03-17T09:41:06;19.40;99.90
56256;DHT22;57229;51.432;-2.598;2024-03-17T09:43:35;20.10;99.90
56256;DHT22;57229;51.432;-2.598;2024-03-17T09:46:05;20.80;99.90
56256;DHT22;57229;51.432;-2.598;2024-03-17T09:48:31;21.10;99.90
56256;DHT22;57229;51.432;-2.598;2024-03-17T09:51:01;21.50;99.90
56256;DHT22;57229;51.432;-2.598;2024-03-17T09:53:30;20.30;99.90
56256;DHT22;57229;51.432;-2.598;2024-03-17T09:56:11;18.80;99.90
56256;DHT22;57229;51.432;-2.598;2024-03-17T09:58:37;17.90;99.90
56256;DHT22;57229;51.432;-2.598;2024-03-17T10:01:03;17.10;99.90
56256;DHT22;57229;51.432;-2.598;2024-03-17T10:03:55;16.50;99.90
56256;DHT22;57229;51.432;-2.598;2024-03-17T10:06:22;16.80;99.90
56256;DHT22;57229;51.432;-2.598;2024-03-17T10:08:54;16.70;99.90
56256;DHT22;57229;51.432;-2.598;2024-03-17T10:11:21;16.40;99.90
56256;DHT22;57229;51.432;-2.598;2024-03-17T10:14:08;16.20;99.90
56256;DHT22;57229;51.432;-2.598;2024-03-17T10:16:36;15.90;99.90
56256;DHT22;57229;51.432;-2.598;2024-03-17T10:19:06;15.70;99.90
56256;DHT22;57229;51.432;-2.598;2024-03-17T10:21:33;15.50;99.90
56256;DHT22;57229;51.432;-2.598;2024-03-17T10:24:11;15.60;99.90
56256;DHT22;57229;51.432;-2.598;2024-03-17T10:26:58;15.70;99.90
56256;DHT22;57229;51.432;-2.598;2024-03-17T10:31:55;15.60;99.90
56256;DHT22;57229;51.432;-2.598;2024-03-17T10:34:21;15.60;99.90
56256;DHT22;57229;51.432;-2.598;2024-03-17T10:36:50;15.70;99.90
56256;DHT22;57229;51.432;-2.598;2024-03-17T10:39:24;15.70;99.90
56256;DHT22;57229;51.432;-2.598;2024-03-17T10:42:02;15.80;99.90
56256;DHT22;57229;51.432;-2.598;2024-03-17T10:44:30;15.60;99.90
56256;DHT22;57229;51.432;-2.598;2024-03-17T10:47:01;15.40;99.90
56256;DHT22;57229;51.432;-2.598;2024-03-17T10:49:32;15.20;99.90
56256;DHT22;57229;51.432;-2.598;2024-03-17T10:52:02;15.00;99.90
56256;DHT22;57229;51.432;-2.598;2024-03-17T10:54:30;14.80;99.90
56256;DHT22;57229;51.432;-2.598;2024-03-17T10:57:00;15.10;99.90
56256;DHT22;57229;51.432;-2.598;2024-03-17T10:59:40;14.60;99.90
56256;DHT22;57229;51.432;-2.598;2024-03-17T11:02:21;14.70;99.90
56256;DHT22;57229;51.432;-2.598;2024-03-17T11:04:52;14.70;99.90
56256;DHT22;57229;51.432;-2.598;2024-03-17T11:07:19;14.70;99.90
56256;DHT22;57229;51.432;-2.598;2024-03-17T11:09:46;14.60;99.90
56256;DHT22;57229;51.432;-2.598;2024-03-17T11:18:36;14.70;99.90
56256;DHT22;57229;51.432;-2.598;2024-03-17T11:21:21;14.90;99.90
56256;DHT22;57229;51.432;-2.598;2024-03-17T11:23:58;15.40;99.90
56256;DHT22;57229;51.432;-2.598;2024-03-17T11:26:29;16.20;99.90
56256;DHT22;57229;51.432;-2.598;2024-03-17T11:28:55;16.70;99.90
56256;DHT22;57229;51.432;-2.598;2024-03-17T11:33:58;16.70;99.90
56256;DHT22;57229;51.432;-2.598;2024-03-17T11:38:58;15.90;99.90
56256;DHT22;57229;51.432;-2.598;2024-03-17T11:52:03;17.20;99.90
56256;DHT22;57229;51.432;-2.598;2024-03-17T11:54:31;18.00;99.90
56256;DHT22;57229;51.432;-2.598;2024-03-17T11:57:11;19.10;99.90
56256;DHT22;57229;51.432;-2.598;2024-03-17T11:59:37;18.30;99.90
56256;DHT22;57229;51.432;-2.598;2024-03-17T12:02:24;18.00;99.90
56256;DHT22;57229;51.432;-2.598;2024-03-17T12:05:01;17.50;99.90
56256;DHT22;57229;51.432;-2.598;2024-03-17T12:07:27;17.90;99.90
56256;DHT22;57229;51.432;-2.598;2024-03-17T12:09:56;17.00;99.90
56256;DHT22;57229;51.432;-2.598;2024-03-17T12:12:27;17.20;99.90
56256;DHT22;57229;51.432;-2.598;2024-03-17T12:15:03;17.30;99.90
56256;DHT22;57229;51.432;-2.598;2024-03-17T12:17:31;17.10;99.90
56256;DHT22;57229;51.432;-2.598;2024-03-17T12:19:56;17.20;99.90
56256;DHT22;57229;51.432;-2.598;2024-03-17T12:22:23;17.20;99.90
56256;DHT22;57229;51.432;-2.598;2024-03-17T12:24:58;17.20;99.90
56256;DHT22;57229;51.432;-2.598;2024-03-17T12:27:25;17.20;99.90
56256;DHT22;57229;51.432;-2.598;2024-03-17T12:29:52;17.00;99.90
56256;DHT22;57229;51.432;-2.598;2024-03-17T12:32:23;17.30;99.90
56256;DHT22;57229;51.432;-2.598;2024-03-17T12:34:55;17.70;99.90
56256;DHT22;57229;51.432;-2.598;2024-03-17T12:37:27;17.90;99.90
56256;DHT22;57229;51.432;-2.598;2024-03-17T12:39:59;18.10;99.90
56256;DHT22;57229;51.432;-2.598;2024-03-17T12:42:26;18.00;99.90
56256;DHT22;57229;51.432;-2.598;2024-03-17T12:44:56;17.90;99.90
56256;DHT22;57229;51.432;-2.598;2024-03-17T12:47:27;17.50;99.90
56256;DHT22;57229;51.432;-2.598;2024-03-17T12:49:57;17.20;99.90
56256;DHT22;57229;51.432;-2.598;2024-03-17T12:52:30;17.10;99.90
56256;DHT22;57229;51.432;-2.598;2024-03-17T12:55:04;16.90;99.90
56256;DHT22;57229;51.432;-2.598;2024-03-17T12:58:04;16.70;99.90
56256;DHT22;57229;51.432;-2.598;2024-03-17T13:01:05;16.30;99.90
56256;DHT22;57229;51.432;-2.598;2024-03-17T13:03:32;16.50;99.90
56256;DHT22;57229;51.432;-2.598;2024-03-17T13:06:00;15.70;99.90
56256;DHT22;57229;51.432;-2.598;2024-03-17T13:08:26;16.50;99.90
56256;DHT22;57229;51.432;-2.598;2024-03-17T13:10:52;16.00;99.90
56256;DHT22;57229;51.432;-2.598;2024-03-17T13:13:17;16.20;99.90
56256;DHT22;57229;51.432;-2.598;2024-03-17T13:15:43;16.30;99.90
56256;DHT22;57229;51.432;-2.598;2024-03-17T13:18:11;16.00;99.90
56256;DHT22;57229;51.432;-2.598;2024-03-17T13:20:40;15.80;99.90
56256;DHT22;57229;51.432;-2.598;2024-03-17T13:23:07;15.40;99.90
56256;DHT22;57229;51.432;-2.598;2024-03-17T13:25:33;15.00;99.90
56256;DHT22;57229;51.432;-2.598;2024-03-17T13:28:02;15.40;99.90
56256;DHT22;57229;51.432;-2.598;2024-03-17T13:30:29;14.80;99.90
56256;DHT22;57229;51.432;-2.598;2024-03-17T13:32:55;16.00;99.90
56256;DHT22;57229;51.432;-2.598;2024-03-17T13:35:26;14.90;99.90
56256;DHT22;57229;51.432;-2.598;2024-03-17T13:37:52;15.50;99.90
56256;DHT22;57229;51.432;-2.598;2024-03-17T13:40:20;15.50;99.90
56256;DHT22;57229;51.432;-2.598;2024-03-17T13:42:46;15.60;99.90
56256;DHT22;57229;51.432;-2.598;2024-03-17T13:45:15;16.60;99.90
56256;DHT22;57229;51.432;-2.598;2024-03-17T13:47:58;15.40;99.90
56256;DHT22;57229;51.432;-2.598;2024-03-17T13:50:24;15.70;99.90
56256;DHT22;57229;51.432;-2.598;2024-03-17T13:52:51;15.30;99.90
56256;DHT22;57229;51.432;-2.598;2024-03-17T13:55:17;15.90;99.90
56256;DHT22;57229;51.432;-2.598;2024-03-17T13:57:44;16.10;99.90
56256;DHT22;57229;51.432;-2.598;2024-03-17T14:00:11;16.80;99.90
56256;DHT22;57229;51.432;-2.598;2024-03-17T14:02:44;18.40;99.90
56256;DHT22;57229;51.432;-2.598;2024-03-17T14:05:14;18.70;99.90
56256;DHT22;57229;51.432;-2.598;2024-03-17T14:07:51;18.00;99.90
56256;DHT22;57229;51.432;-2.598;2024-03-17T14:10:18;17.40;99.90
56256;DHT22;57229;51.432;-2.598;2024-03-17T14:12:44;17.20;99.90
56256;DHT22;57229;51.432;-2.598;2024-03-17T14:15:13;16.90;99.90
56256;DHT22;57229;51.432;-2.598;2024-03-17T14:17:40;17.00;99.90
56256;DHT22;57229;51.432;-2.598;2024-03-17T14:20:07;16.80;99.90
56256;DHT22;57229;51.432;-2.598;2024-03-17T14:22:37;16.50;99.90
56256;DHT22;57229;51.432;-2.598;2024-03-17T14:25:23;16.00;99.90
56256;DHT22;57229;51.432;-2.598;2024-03-17T14:27:50;15.90;99.90
56256;DHT22;57229;51.432;-2.598;2024-03-17T14:30:31;16.00;99.90
56256;DHT22;57229;51.432;-2.598;2024-03-17T14:32:58;16.30;99.90
56256;DHT22;57229;51.432;-2.598;2024-03-17T14:35:25;18.20;99.90
56256;DHT22;57229;51.432;-2.598;2024-03-17T14:37:53;18.50;99.90
56256;DHT22;57229;51.432;-2.598;2024-03-17T14:40:19;18.90;99.40
56256;DHT22;57229;51.432;-2.598;2024-03-17T14:42:54;18.60;99.80
56256;DHT22;57229;51.432;-2.598;2024-03-17T14:45:45;19.00;99.30
56256;DHT22;57229;51.432;-2.598;2024-03-17T14:48:35;19.50;98.60
56256;DHT22;57229;51.432;-2.598;2024-03-17T14:51:54;20.50;97.50
56256;DHT22;57229;51.432;-2.598;2024-03-17T14:54:02;21.40;96.00
56256;DHT22;57229;51.432;-2.598;2024-03-17T14:56:32;21.20;95.20
56256;DHT22;57229;51.432;-2.598;2024-03-17T14:59:16;21.40;95.10
56256;DHT22;57229;51.432;-2.598;2024-03-17T15:01:45;21.60;94.30
56256;DHT22;57229;51.432;-2.598;2024-03-17T15:04:19;21.50;94.80
56256;DHT22;57229;51.432;-2.598;2024-03-17T15:06:47;21.20;94.20
56256;DHT22;57229;51.432;-2.598;2024-03-17T15:09:13;20.90;93.90
56256;DHT22;57229;51.432;-2.598;2024-03-17T15:11:47;21.00;94.10
56256;DHT22;57229;51.432;-2.598;2024-03-17T15:18:09;20.80;94.80
56256;DHT22;57229;51.432;-2.598;2024-03-17T15:20:38;19.90;94.60
56256;DHT22;57229;51.432;-2.598;2024-03-17T15:23:13;19.30;95.60
56256;DHT22;57229;51.432;-2.598;2024-03-17T15:25:44;19.80;95.80
56256;DHT22;57229;51.432;-2.598;2024-03-17T15:28:29;20.60;94.50
56256;DHT22;57229;51.432;-2.598;2024-03-17T15:34:14;21.00;93.60
56256;DHT22;57229;51.432;-2.598;2024-03-17T15:36:40;19.30;95.00
56256;DHT22;57229;51.432;-2.598;2024-03-17T15:39:08;18.00;96.70
56256;DHT22;57229;51.432;-2.598;2024-03-17T15:41:37;17.20;98.50
56256;DHT22;57229;51.432;-2.598;2024-03-17T15:44:03;16.60;99.70
56256;DHT22;57229;51.432;-2.598;2024-03-17T15:46:29;16.30;99.90
56256;DHT22;57229;51.432;-2.598;2024-03-17T15:48:58;15.60;99.90
56256;DHT22;57229;51.432;-2.598;2024-03-17T15:51:24;15.70;99.90
56256;DHT22;57229;51.432;-2.598;2024-03-17T15:53:50;15.60;99.90
56256;DHT22;57229;51.432;-2.598;2024-03-17T15:56:19;15.70;99.90
56256;DHT22;57229;51.432;-2.598;2024-03-17T15:58:45;15.90;99.90